createdAt,value
2023-05-06T11:51:27.563Z,1013.24
2023-05-06T11:52:27.540Z,1013.21
2023-05-06T11:53:27.545Z,1013.20
2023-05-06T11:55:10.863Z,1013.16
2023-05-06T11:56:10.905Z,1013.16
2023-05-06T11:57:10.759Z,1013.18
2023-05-06T11:58:10.744Z,1013.19
2023-05-06T11:59:10.635Z,1013.18
2023-05-06T12:00:10.930Z,1013.18
2023-05-06T12:01:10.627Z,1013.15
2023-05-06T12:02:10.501Z,1013.17
2023-05-06T12:03:10.575Z,1013.12
2023-05-06T12:04:10.719Z,1013.13
2023-05-06T12:05:10.386Z,1013.17
2023-05-06T12:06:10.384Z,1013.17
2023-05-06T12:07:10.418Z,1013.16
2023-05-06T12:08:23.539Z,1013.13
2023-05-06T12:09:10.287Z,1013.10
2023-05-06T12:10:10.449Z,1013.13
2023-05-06T12:11:10.297Z,1013.14
2023-05-06T12:12:10.158Z,1013.13
2023-05-06T12:13:10.187Z,1013.15
2023-05-06T12:14:10.162Z,1013.12
2023-05-06T12:15:10.039Z,1013.15
2023-05-06T12:16:10.083Z,1013.06
2023-05-06T12:17:12.685Z,1013.10
2023-05-06T12:18:09.922Z,1013.11
2023-05-06T12:19:13.513Z,1013.13
2023-05-06T12:20:58.299Z,1013.11
2023-05-06T12:21:58.291Z,1013.16
2023-05-06T12:22:58.386Z,1013.08
2023-05-06T12:23:58.357Z,1013.12
2023-05-06T12:24:58.168Z,1013.08
2023-05-06T12:25:58.168Z,1013.16
2023-05-06T12:26:58.191Z,1013.14
2023-05-06T12:27:58.076Z,1013.13
2023-05-06T12:28:58.058Z,1013.15
2023-05-06T12:29:58.050Z,1013.13
2023-05-06T12:30:57.936Z,1013.14
2023-05-06T12:31:57.965Z,1013.07
2023-05-06T12:32:57.983Z,1013.13
2023-05-06T12:34:00.555Z,1013.11
2023-05-06T12:34:57.821Z,1013.09
2023-05-06T12:35:57.825Z,1013.12
2023-05-06T12:36:57.834Z,1013.13
2023-05-06T12:37:57.712Z,1013.15
2023-05-06T12:38:57.755Z,1013.11
2023-05-06T12:39:59.179Z,1013.13
2023-05-06T12:40:57.597Z,1013.11
2023-05-06T12:41:57.589Z,1013.12
2023-05-06T12:42:57.593Z,1013.09
2023-05-06T12:43:57.472Z,1013.09
2023-05-06T12:44:57.475Z,1013.12
2023-05-06T12:45:58.080Z,1013.14
2023-05-06T12:46:57.439Z,1013.07
2023-05-06T12:47:57.366Z,1013.14
2023-05-06T12:48:57.357Z,1013.09
2023-05-06T12:49:57.362Z,1013.13
2023-05-06T12:50:57.263Z,1013.12
2023-05-06T12:51:57.252Z,1013.10
2023-05-06T12:52:57.261Z,1013.08
2023-05-06T12:53:57.128Z,1013.06
2023-05-06T12:54:57.194Z,1013.03
2023-05-06T12:55:57.120Z,1013.01
2023-05-06T12:56:57.015Z,1013.02
2023-05-06T12:57:57.942Z,1013.00
2023-05-06T12:58:57.014Z,1013.00
2023-05-06T12:59:56.890Z,1013.00
2023-05-06T13:00:56.916Z,1013.01
2023-05-06T13:01:56.892Z,1012.99
2023-05-06T13:02:56.961Z,1012.98
2023-05-06T13:03:56.772Z,1012.98
2023-05-06T13:04:56.776Z,1012.96
2023-05-06T13:05:56.776Z,1012.94
2023-05-06T13:06:56.656Z,1013.00
2023-05-06T13:07:56.664Z,1012.96
2023-05-06T13:08:56.665Z,1012.98
2023-05-06T13:09:56.550Z,1012.97
2023-05-06T13:10:56.633Z,1012.95
2023-05-06T13:11:56.538Z,1012.94
2023-05-06T13:12:56.474Z,1012.89
2023-05-06T13:13:56.421Z,1012.93
2023-05-06T13:14:56.424Z,1012.91
2023-05-06T13:15:56.405Z,1012.92
2023-05-06T13:16:56.356Z,1012.91
2023-05-06T13:17:56.359Z,1012.93
2023-05-06T13:18:56.314Z,1012.82
2023-05-06T13:19:56.197Z,1012.90
2023-05-06T13:20:56.199Z,1012.88
2023-05-06T13:21:56.192Z,1012.93
2023-05-06T13:22:56.074Z,1012.91
2023-05-06T13:23:56.075Z,1012.91
2023-05-06T13:24:56.074Z,1012.92
2023-05-06T13:26:04.078Z,1012.87
2023-05-06T13:26:56.066Z,1012.87
2023-05-06T13:27:55.955Z,1012.83
2023-05-06T13:28:55.835Z,1012.85
2023-05-06T13:29:55.840Z,1012.81
2023-05-06T13:30:55.889Z,1012.84
2023-05-06T13:31:55.807Z,1012.87
2023-05-06T13:32:55.765Z,1012.83
2023-05-06T13:33:55.729Z,1012.85
2023-05-06T13:34:55.728Z,1012.81
2023-05-06T13:35:55.613Z,1012.81
2023-05-06T13:36:55.608Z,1012.83
2023-05-06T13:37:55.606Z,1012.79
2023-05-06T13:38:55.489Z,1012.72
2023-05-06T13:39:55.509Z,1012.82
2023-05-06T13:40:55.489Z,1012.81
2023-05-06T13:41:55.366Z,1012.80
2023-05-06T13:42:55.482Z,1012.76
2023-05-06T13:43:55.372Z,1012.78
2023-05-06T13:44:55.374Z,1012.76
2023-05-06T13:45:55.296Z,1012.73
2023-05-06T13:46:55.330Z,1012.71
2023-05-06T13:47:55.309Z,1012.73
2023-05-06T13:48:55.139Z,1012.73
2023-05-06T13:49:55.144Z,1012.71
2023-05-06T13:50:55.140Z,1012.70
2023-05-06T13:51:55.021Z,1012.64
2023-05-06T13:52:55.024Z,1012.69
2023-05-06T13:53:55.023Z,1012.69
2023-05-06T13:54:54.993Z,1012.70
2023-05-06T13:55:54.908Z,1012.70
2023-05-06T13:56:54.905Z,1012.70
2023-05-06T13:57:54.929Z,1012.70
2023-05-06T13:58:54.812Z,1012.70
2023-05-06T13:59:54.791Z,1012.70
2023-05-06T14:00:54.794Z,1012.68
2023-05-06T14:01:54.683Z,1012.65
2023-05-06T14:02:54.704Z,1012.69
2023-05-06T14:03:54.675Z,1012.66
2023-05-06T14:04:54.657Z,1012.63
2023-05-06T14:05:54.553Z,1012.66
2023-05-06T14:06:54.558Z,1012.64
2023-05-06T14:07:54.555Z,1012.64
2023-05-06T14:08:54.443Z,1012.68
2023-05-06T14:09:54.440Z,1012.68
2023-05-06T14:10:54.441Z,1012.63
2023-05-06T14:11:54.325Z,1012.68
2023-05-06T14:12:54.364Z,1012.63
2023-05-06T14:13:54.325Z,1012.64
2023-05-06T14:14:54.242Z,1012.64
2023-05-06T14:15:54.284Z,1012.63
2023-05-06T14:16:54.216Z,1012.65
2023-05-06T14:17:54.177Z,1012.64
2023-05-06T14:18:54.088Z,1012.60
2023-05-06T14:19:54.085Z,1012.64
2023-05-06T14:20:54.088Z,1012.62
2023-05-06T14:21:53.978Z,1012.56
2023-05-06T14:22:54.002Z,1012.58
2023-05-06T14:23:53.989Z,1012.55
2023-05-06T14:24:53.854Z,1012.55
2023-05-06T14:25:53.855Z,1012.54
2023-05-06T14:26:53.974Z,1012.54
2023-05-06T14:27:53.737Z,1012.54
2023-05-06T14:28:53.739Z,1012.47
2023-05-06T14:29:53.738Z,1012.46
2023-05-06T14:30:53.708Z,1012.54
2023-05-06T14:31:53.656Z,1012.53
2023-05-06T14:32:53.695Z,1012.55
2023-05-06T14:33:53.501Z,1012.51
2023-05-06T14:34:53.506Z,1012.51
2023-05-06T14:35:53.511Z,1012.48
2023-05-06T14:36:53.527Z,1012.45
2023-05-06T14:37:53.387Z,1012.44
2023-05-06T14:38:53.394Z,1012.40
2023-05-06T14:39:53.388Z,1012.47
2023-05-06T14:40:53.269Z,1012.43
2023-05-06T14:41:53.270Z,1012.45
2023-05-06T14:42:53.273Z,1012.43
2023-05-06T14:43:53.153Z,1012.41
2023-05-06T14:44:53.177Z,1012.42
2023-05-06T14:45:53.238Z,1012.43
2023-05-06T14:46:53.125Z,1012.45
2023-05-06T14:47:53.113Z,1012.40
2023-05-06T14:48:53.051Z,1012.40
2023-05-06T14:49:52.918Z,1012.37
2023-05-06T14:50:52.935Z,1012.43
2023-05-06T14:51:52.925Z,1012.39
2023-05-06T14:52:52.815Z,1012.36
2023-05-06T14:53:52.810Z,1012.39
2023-05-06T14:54:52.851Z,1012.36
2023-05-06T14:55:52.772Z,1012.35
2023-05-06T14:56:52.688Z,1012.35
2023-05-06T14:57:52.692Z,1012.36
2023-05-06T14:58:52.699Z,1012.34
2023-05-06T14:59:52.564Z,1012.35
2023-05-06T15:00:52.685Z,1012.34
2023-05-06T15:01:52.567Z,1012.31
2023-05-06T15:02:52.514Z,1012.33
2023-05-06T15:03:52.456Z,1012.30
2023-05-06T15:04:52.459Z,1012.32
2023-05-06T15:05:52.391Z,1012.34
2023-05-06T15:06:52.348Z,1012.33
2023-05-06T15:07:52.344Z,1012.30
2023-05-06T15:08:52.218Z,1012.33
2023-05-06T15:09:52.223Z,1012.32
2023-05-06T15:10:52.231Z,1012.33
2023-05-06T15:11:52.100Z,1012.30
2023-05-06T15:12:52.137Z,1012.33
2023-05-06T15:13:52.111Z,1012.36
2023-05-06T15:14:51.994Z,1012.31
2023-05-06T15:15:52.024Z,1012.33
2023-05-06T15:16:52.037Z,1012.35
2023-05-06T15:17:51.896Z,1012.33
2023-05-06T15:18:51.965Z,1012.35
2023-05-06T15:19:51.870Z,1012.36
2023-05-06T15:20:51.752Z,1012.30
2023-05-06T15:21:51.752Z,1012.31
2023-05-06T15:22:51.763Z,1012.31
2023-05-06T15:23:51.638Z,1012.30
2023-05-06T15:24:51.638Z,1012.32
2023-05-06T15:25:51.637Z,1012.34
2023-05-06T15:26:51.526Z,1012.32
2023-05-06T15:27:51.517Z,1012.29
2023-05-06T15:28:51.524Z,1012.31
2023-05-06T15:29:51.401Z,1012.29
2023-05-06T15:30:51.412Z,1012.31
2023-05-06T15:31:51.469Z,1012.30
2023-05-06T15:32:51.335Z,1012.35
2023-05-06T15:33:51.291Z,1012.35
2023-05-06T15:34:51.304Z,1012.32
2023-05-06T15:35:51.173Z,1012.36
2023-05-06T15:36:51.171Z,1012.36
2023-05-06T15:37:51.173Z,1012.37
2023-05-06T15:38:51.059Z,1012.36
2023-05-06T15:39:51.061Z,1012.33
2023-05-06T15:40:51.080Z,1012.35
2023-05-06T15:41:50.959Z,1012.40
2023-05-06T15:42:50.942Z,1012.35
2023-05-06T15:43:50.938Z,1012.36
2023-05-06T15:44:50.823Z,1012.38
2023-05-06T15:45:50.876Z,1012.42
2023-05-06T15:46:50.822Z,1012.45
2023-05-06T15:47:50.814Z,1012.49
2023-05-06T15:48:57.602Z,1012.46
2023-05-06T15:49:54.866Z,1012.53
2023-05-06T15:50:50.609Z,1012.55
2023-05-06T15:51:50.592Z,1012.50
2023-05-06T15:52:50.635Z,1012.59
2023-05-06T15:53:50.464Z,1012.63
2023-05-06T15:54:50.490Z,1012.63
2023-05-06T15:55:56.725Z,1012.64
2023-05-06T15:56:50.365Z,1012.70
2023-05-06T15:57:50.357Z,1012.66
2023-05-06T15:58:50.231Z,1012.69
2023-05-06T15:59:50.242Z,1012.78
2023-05-06T16:00:50.238Z,1012.79
2023-05-06T16:02:25.335Z,1012.81
2023-05-06T16:02:50.211Z,1012.85
2023-05-06T16:03:50.222Z,1012.86
2023-05-06T16:04:50.414Z,1012.88
2023-05-06T16:05:50.015Z,1012.90
2023-05-06T16:06:50.100Z,1012.86
2023-05-06T16:07:49.887Z,1012.88
2023-05-06T16:08:49.887Z,1012.96
2023-05-06T16:09:49.894Z,1012.86
2023-05-06T16:10:49.767Z,1012.91
2023-05-06T16:11:49.793Z,1012.93
2023-05-06T16:12:49.794Z,1012.94
2023-05-06T16:13:49.643Z,1012.90
2023-05-06T16:14:49.654Z,1012.95
2023-05-06T16:15:49.679Z,1012.92
2023-05-06T16:16:49.537Z,1012.90
2023-05-06T16:17:49.586Z,1012.94
2023-05-06T16:18:49.536Z,1012.93
2023-05-06T16:19:49.414Z,1012.96
2023-05-06T16:20:49.409Z,1012.90
2023-05-06T16:21:49.421Z,1012.92
2023-05-06T16:22:49.390Z,1012.91
2023-05-06T16:23:49.297Z,1012.97
2023-05-06T16:24:49.177Z,1012.94
2023-05-06T16:25:49.178Z,1012.93
2023-05-06T16:26:49.177Z,1012.93
2023-05-06T16:27:49.075Z,1012.95
2023-05-06T16:28:49.066Z,1012.95
2023-05-06T16:29:49.063Z,1012.92
2023-05-06T16:30:48.945Z,1012.88
2023-05-06T16:31:49.061Z,1012.89
2023-05-06T16:32:48.997Z,1012.91
2023-05-06T16:33:48.825Z,1012.88
2023-05-06T16:34:48.834Z,1012.89
2023-05-06T16:35:48.832Z,1012.90
2023-05-06T16:36:48.712Z,1012.89
2023-05-06T16:37:48.721Z,1012.88
2023-05-06T16:38:48.803Z,1012.92
2023-05-06T16:39:48.592Z,1012.92
2023-05-06T16:40:48.593Z,1012.87
2023-05-06T16:41:48.590Z,1012.88
2023-05-06T16:42:48.495Z,1012.85
2023-05-06T16:43:48.569Z,1012.85
2023-05-06T16:44:48.410Z,1012.85
2023-05-06T16:45:48.473Z,1012.86
2023-05-06T16:46:48.423Z,1012.80
2023-05-06T16:47:49.727Z,1012.82
2023-05-06T16:48:48.311Z,1012.82
2023-05-06T16:49:48.247Z,1012.86
2023-05-06T16:50:48.134Z,1012.80
2023-05-06T16:51:48.134Z,1012.80
2023-05-06T16:52:48.127Z,1012.80
2023-05-06T16:53:48.013Z,1012.81
2023-05-06T16:54:48.032Z,1012.78
2023-05-06T16:55:48.016Z,1012.83
2023-05-06T16:56:52.153Z,1012.76
2023-05-06T16:57:47.899Z,1012.82
2023-05-06T16:58:47.777Z,1012.84
2023-05-06T16:59:47.776Z,1012.83
2023-05-06T17:00:47.796Z,1012.83
2023-05-06T17:01:47.660Z,1012.83
2023-05-06T17:02:47.737Z,1012.85
2023-05-06T17:03:47.664Z,1012.81
2023-05-06T17:04:47.540Z,1012.79
2023-05-06T17:05:47.609Z,1012.81
2023-05-06T17:06:47.542Z,1012.81
2023-05-06T17:07:48.388Z,1012.75
2023-05-06T17:08:47.427Z,1012.79
2023-05-06T17:09:47.423Z,1012.77
2023-05-06T17:10:47.320Z,1012.78
2023-05-06T17:11:47.309Z,1012.78
2023-05-06T17:12:47.218Z,1012.80
2023-05-06T17:13:47.192Z,1012.80
2023-05-06T17:14:47.185Z,1012.78
2023-05-06T17:15:47.277Z,1012.76
2023-05-06T17:16:47.113Z,1012.77
2023-05-06T17:17:47.097Z,1012.79
2023-05-06T17:18:47.041Z,1012.77
2023-05-06T17:19:47.051Z,1012.73
2023-05-06T17:20:55.053Z,1012.72
2023-05-06T17:21:46.839Z,1012.76
2023-05-06T17:22:46.834Z,1012.73
2023-05-06T17:23:46.836Z,1012.77
2023-05-06T17:24:46.717Z,1012.68
2023-05-06T17:25:46.721Z,1012.69
2023-05-06T17:26:46.686Z,1012.69
2023-05-06T17:27:46.610Z,1012.69
2023-05-06T17:28:46.601Z,1012.68
2023-05-06T17:30:46.580Z,1012.68
2023-05-06T17:31:46.495Z,1012.64
2023-05-06T17:32:46.391Z,1012.73
2023-05-06T17:33:46.384Z,1012.66
2023-05-06T17:34:46.374Z,1012.69
2023-05-06T17:35:46.255Z,1012.74
2023-05-06T17:36:46.253Z,1012.72
2023-05-06T17:37:46.251Z,1012.70
2023-05-06T17:38:46.187Z,1012.71
2023-05-06T17:39:46.133Z,1012.73
2023-05-06T17:40:46.016Z,1012.69
2023-05-06T17:41:46.019Z,1012.69
2023-05-06T17:42:46.107Z,1012.71
2023-05-06T17:43:45.896Z,1012.69
2023-05-06T17:44:45.898Z,1012.71
2023-05-06T17:45:45.903Z,1012.70
2023-05-06T17:46:45.852Z,1012.63
2023-05-06T17:47:45.800Z,1012.57
2023-05-06T17:48:45.783Z,1012.66
2023-05-06T17:49:45.708Z,1012.63
2023-05-06T17:50:45.669Z,1012.62
2023-05-06T17:51:45.665Z,1012.61
2023-05-06T17:52:45.547Z,1012.61
2023-05-06T17:53:45.546Z,1012.59
2023-05-06T17:54:46.067Z,1012.55
2023-05-06T17:55:45.430Z,1012.62
2023-05-06T17:56:45.437Z,1012.62
2023-05-06T17:57:45.323Z,1012.61
2023-05-06T17:59:45.332Z,1012.61
2023-05-06T18:00:45.192Z,1012.58
2023-05-06T18:01:45.266Z,1012.66
2023-05-06T18:02:45.365Z,1012.63
2023-05-06T18:03:45.196Z,1012.66
2023-05-06T18:04:45.082Z,1012.66
2023-05-06T18:05:45.051Z,1012.69
2023-05-06T18:06:44.963Z,1012.67
2023-05-06T18:07:44.963Z,1012.63
2023-05-06T18:08:44.842Z,1012.64
2023-05-06T18:09:44.855Z,1012.62
2023-05-06T18:10:44.845Z,1012.67
2023-05-06T18:11:44.726Z,1012.68
2023-05-06T18:12:44.743Z,1012.69
2023-05-06T18:13:44.730Z,1012.67
2023-05-06T18:14:44.607Z,1012.72
2023-05-06T18:15:44.737Z,1012.71
2023-05-06T18:16:44.660Z,1012.71
2023-05-06T18:17:44.519Z,1012.74
2023-05-06T18:18:44.493Z,1012.75
2023-05-06T18:20:28.660Z,1012.78
2023-05-06T18:21:27.826Z,1012.78
2023-05-06T18:22:27.818Z,1012.80
2023-05-06T18:23:27.696Z,1012.75
2023-05-06T18:24:27.704Z,1012.84
2023-05-06T18:25:27.702Z,1012.85
2023-05-06T18:26:43.280Z,1012.85
2023-05-06T18:27:27.580Z,1012.87
2023-05-06T18:28:27.584Z,1012.90
2023-05-06T18:29:27.465Z,1012.89
2023-05-06T18:30:27.462Z,1012.91
2023-05-06T18:31:27.542Z,1012.92
2023-05-06T18:32:27.372Z,1012.96
2023-05-06T18:33:27.351Z,1012.96
2023-05-06T18:34:27.249Z,1012.95
2023-05-06T18:35:27.258Z,1012.97
2023-05-06T18:36:27.236Z,1012.95
2023-05-06T18:37:27.112Z,1012.95
2023-05-06T18:38:27.120Z,1012.98
2023-05-06T18:39:27.126Z,1012.96
2023-05-06T18:40:26.995Z,1012.97
2023-05-06T18:41:27.017Z,1013.01
2023-05-06T18:42:27.011Z,1013.01
2023-05-06T18:43:26.878Z,1013.01
2023-05-06T18:44:26.884Z,1013.00
2023-05-06T18:45:26.822Z,1012.98
2023-05-06T18:46:26.870Z,1013.01
2023-05-06T18:47:26.929Z,1013.04
2023-05-06T18:48:26.677Z,1012.98
2023-05-06T18:49:26.651Z,1013.02
2023-05-06T18:50:26.662Z,1013.01
2023-05-06T18:51:26.539Z,1013.03
2023-05-06T18:52:26.532Z,1013.05
2023-05-06T18:53:26.539Z,1013.05
2023-05-06T18:54:26.407Z,1012.96
2023-05-06T18:55:26.412Z,1013.05
2023-05-06T18:56:26.415Z,1013.05
2023-05-06T18:57:26.289Z,1013.06
2023-05-06T18:58:26.295Z,1013.10
2023-05-06T18:59:26.175Z,1013.08
2023-05-06T19:00:26.176Z,1013.09
2023-05-06T19:01:26.345Z,1013.12
2023-05-06T19:02:26.084Z,1013.10
2023-05-06T19:03:26.072Z,1013.10
2023-05-06T19:04:26.129Z,1013.10
2023-05-06T19:05:25.949Z,1013.09
2023-05-06T19:06:25.946Z,1013.12
2023-05-06T19:07:25.911Z,1013.08
2023-05-06T19:08:25.830Z,1013.10
2023-05-06T19:09:25.829Z,1013.10
2023-05-06T19:10:25.828Z,1013.07
2023-05-06T19:11:25.794Z,1013.05
2023-05-06T19:12:25.846Z,1013.04
2023-05-06T19:13:25.657Z,1013.06
2023-05-06T19:14:25.701Z,1013.08
2023-05-06T19:15:25.593Z,1013.07
2023-05-06T19:16:25.496Z,1013.11
2023-05-06T19:17:25.574Z,1013.13
2023-05-06T19:18:25.370Z,1013.14
2023-05-06T19:19:25.449Z,1013.13
2023-05-06T19:20:25.368Z,1013.14
2023-05-06T19:21:25.245Z,1013.16
2023-05-06T19:22:25.243Z,1013.12
2023-05-06T19:23:25.251Z,1013.14
2023-05-06T19:24:25.123Z,1013.10
2023-05-06T19:25:25.130Z,1013.12
2023-05-06T19:26:25.135Z,1013.10
2023-05-06T19:27:25.009Z,1013.12
2023-05-06T19:28:25.015Z,1013.11
2023-05-06T19:29:24.974Z,1013.13
2023-05-06T19:30:24.897Z,1013.15
2023-05-06T19:31:24.996Z,1013.12
2023-05-06T19:32:24.850Z,1013.14
2023-05-06T19:33:24.772Z,1013.18
2023-05-06T19:34:24.793Z,1013.13
2023-05-06T19:35:24.747Z,1013.12
2023-05-06T19:36:24.655Z,1013.10
2023-05-06T19:37:24.630Z,1013.13
2023-05-06T19:38:24.542Z,1013.13
2023-05-06T19:39:24.544Z,1013.11
2023-05-06T19:40:24.422Z,1013.08
2023-05-06T19:41:24.432Z,1013.11
2023-05-06T19:42:24.432Z,1013.17
2023-05-06T19:43:24.320Z,1013.12
2023-05-06T19:44:24.309Z,1013.13
2023-05-06T19:45:24.312Z,1013.13
2023-05-06T19:46:24.233Z,1013.14
2023-05-06T19:47:24.244Z,1013.13
2023-05-06T19:48:24.200Z,1013.14
2023-05-06T19:49:24.076Z,1013.11
2023-05-06T19:50:24.073Z,1013.13
2023-05-06T19:51:24.049Z,1013.10
2023-05-06T19:52:23.955Z,1013.11
2023-05-06T19:53:24.093Z,1013.11
2023-05-06T19:54:23.843Z,1013.08
2023-05-06T19:55:23.839Z,1013.11
2023-05-06T19:56:23.844Z,1013.08
2023-05-06T19:57:23.717Z,1013.12
2023-05-06T19:58:23.728Z,1013.08
2023-05-06T19:59:23.608Z,1013.13
2023-05-06T20:00:23.606Z,1013.13
2023-05-06T20:01:23.638Z,1013.15
2023-05-06T20:02:23.631Z,1013.14
2023-05-06T20:03:23.616Z,1013.11
2023-05-06T20:04:23.489Z,1013.15
2023-05-06T20:05:23.418Z,1013.15
2023-05-06T20:06:23.371Z,1013.15
2023-05-06T20:07:23.480Z,1013.16
2023-05-06T20:08:23.254Z,1013.16
2023-05-06T20:09:23.264Z,1013.16
2023-05-06T20:10:23.133Z,1013.17
2023-05-06T20:11:23.227Z,1013.18
2023-05-06T20:12:23.141Z,1013.15
2023-05-06T20:13:23.200Z,1013.17
2023-05-06T20:14:23.018Z,1013.18
2023-05-06T20:15:23.032Z,1013.15
2023-05-06T20:16:22.923Z,1013.19
2023-05-06T20:17:22.916Z,1013.19
2023-05-06T20:18:22.803Z,1013.19
2023-05-06T20:19:22.794Z,1013.21
2023-05-06T20:20:22.787Z,1013.18
2023-05-06T20:21:22.661Z,1013.20
2023-05-06T20:22:22.668Z,1013.18
2023-05-06T20:23:22.761Z,1013.19
2023-05-06T20:24:22.556Z,1013.21
2023-05-06T20:25:22.556Z,1013.16
2023-05-06T20:26:24.495Z,1013.20
2023-05-06T20:27:22.453Z,1013.20
2023-05-06T20:28:22.440Z,1013.20
2023-05-06T20:29:22.313Z,1013.18
2023-05-06T20:30:22.338Z,1013.18
2023-05-06T20:31:22.355Z,1013.18
2023-05-06T20:32:22.195Z,1013.16
2023-05-06T20:33:22.216Z,1013.20
2023-05-06T20:34:22.199Z,1013.15
2023-05-06T20:35:22.100Z,1013.18
2023-05-06T20:36:22.087Z,1013.17
2023-05-06T20:37:21.963Z,1013.19
2023-05-06T20:38:21.983Z,1013.26
2023-05-06T20:39:22.011Z,1013.18
2023-05-06T20:40:21.860Z,1013.26
2023-05-06T20:41:21.853Z,1013.21
2023-05-06T20:42:21.853Z,1013.23
2023-05-06T20:43:21.732Z,1013.18
2023-05-06T20:44:21.742Z,1013.21
2023-05-06T20:45:21.610Z,1013.20
2023-05-06T20:46:21.730Z,1013.18
2023-05-06T20:47:21.659Z,1013.21
2023-05-06T20:48:21.501Z,1013.18
2023-05-06T20:49:21.491Z,1013.21
2023-05-06T20:50:21.495Z,1013.22
2023-05-06T20:51:21.376Z,1013.20
2023-05-06T20:52:21.383Z,1013.24
2023-05-06T20:53:21.344Z,1013.21
2023-05-06T20:54:21.274Z,1013.19
2023-05-06T20:55:21.367Z,1013.15
2023-05-06T20:56:21.139Z,1013.23
2023-05-06T20:57:21.151Z,1013.26
2023-05-06T20:58:21.146Z,1013.24
2023-05-06T20:59:21.025Z,1013.24
2023-05-06T21:00:21.017Z,1013.23
2023-05-06T21:01:21.070Z,1013.28
2023-05-06T21:03:46.857Z,1013.28
2023-05-06T21:04:46.714Z,1013.27
2023-05-06T21:05:46.706Z,1013.27
2023-05-06T21:06:46.585Z,1013.26
2023-05-06T21:07:46.598Z,1013.25
2023-05-06T21:08:46.595Z,1013.28
2023-05-06T21:09:46.469Z,1013.28
2023-05-06T21:10:46.562Z,1013.24
2023-05-06T21:11:46.473Z,1013.26
2023-05-06T21:12:46.389Z,1013.24
2023-05-06T21:13:48.187Z,1013.21
2023-05-06T21:14:46.236Z,1013.21
2023-05-06T21:15:46.240Z,1013.22
2023-05-06T21:16:46.234Z,1013.20
2023-05-06T21:17:46.208Z,1013.21
2023-05-06T21:18:46.163Z,1013.20
2023-05-06T21:19:46.120Z,1013.16
2023-05-06T21:20:46.012Z,1013.19
2023-05-06T21:21:46.050Z,1013.13
2023-05-06T21:22:46.002Z,1013.19
2023-05-06T21:23:45.886Z,1013.20
2023-05-06T21:24:45.884Z,1013.16
2023-05-06T21:25:45.779Z,1013.15
2023-05-06T21:26:45.962Z,1013.19
2023-05-06T21:27:45.775Z,1013.17
2023-05-06T21:28:45.647Z,1013.11
2023-05-06T21:30:29.090Z,1013.14
2023-05-06T21:31:29.061Z,1013.15
2023-05-06T21:32:28.998Z,1013.11
2023-05-06T21:33:28.855Z,1013.15
2023-05-06T21:34:28.854Z,1013.14
2023-05-06T21:35:28.857Z,1013.11
2023-05-06T21:36:28.746Z,1013.12
2023-05-06T21:37:28.763Z,1013.11
2023-05-06T21:38:28.742Z,1013.10
2023-05-06T21:39:28.618Z,1013.12
2023-05-06T21:40:28.630Z,1013.11
2023-05-06T21:41:28.630Z,1013.14
2023-05-06T21:42:28.596Z,1013.14
2023-05-06T21:43:29.093Z,1013.17
2023-05-06T21:44:28.395Z,1013.19
2023-05-06T21:45:28.385Z,1013.18
2023-05-06T21:46:28.419Z,1013.16
2023-05-06T21:47:28.323Z,1013.15
2023-05-06T21:48:28.280Z,1013.16
2023-05-06T21:49:28.269Z,1013.17
2023-05-06T21:50:28.181Z,1013.14
2023-05-06T21:51:28.174Z,1013.15
2023-05-06T21:52:28.030Z,1013.18
2023-05-06T21:53:28.036Z,1013.17
2023-05-06T21:54:28.040Z,1013.16
2023-05-06T21:55:27.918Z,1013.15
2023-05-06T21:56:27.927Z,1013.16
2023-05-06T21:57:27.942Z,1013.16
2023-05-06T21:58:27.820Z,1013.18
2023-05-06T21:59:27.821Z,1013.19
2023-05-06T22:00:27.771Z,1013.17
2023-05-06T22:01:27.721Z,1013.15
2023-05-06T22:02:27.788Z,1013.17
2023-05-06T22:03:27.639Z,1013.11
2023-05-06T22:04:27.569Z,1013.14
2023-05-06T22:05:27.568Z,1013.09
2023-05-06T22:06:27.454Z,1013.10
2023-05-06T22:07:27.455Z,1013.12
2023-05-06T22:08:27.460Z,1013.08
2023-05-06T22:09:27.333Z,1013.08
2023-05-06T22:10:27.345Z,1013.05
2023-05-06T22:11:27.215Z,1013.05
2023-05-06T22:12:27.220Z,1013.02
2023-05-06T22:13:27.373Z,1013.00
2023-05-06T22:14:33.763Z,1013.00
2023-05-06T22:15:27.306Z,1013.01
2023-05-06T22:16:27.132Z,1012.95
2023-05-06T22:17:27.022Z,1012.93
2023-05-06T22:18:26.984Z,1012.94
2023-05-06T22:19:26.877Z,1012.91
2023-05-06T22:20:26.871Z,1012.92
2023-05-06T22:21:26.869Z,1012.93
2023-05-06T22:22:26.747Z,1012.95
2023-05-06T22:23:26.747Z,1012.89
2023-05-06T22:25:26.631Z,1012.90
2023-05-06T22:26:26.629Z,1012.84
2023-05-06T22:27:26.631Z,1012.87
2023-05-06T22:28:26.516Z,1012.85
2023-05-06T22:29:26.517Z,1012.88
2023-05-06T22:30:26.482Z,1012.87
2023-05-06T22:31:26.418Z,1012.89
2023-05-06T22:32:26.436Z,1012.89
2023-05-06T22:33:26.301Z,1012.92
2023-05-06T22:34:26.279Z,1012.90
2023-05-06T22:35:26.295Z,1012.90
2023-05-06T22:36:26.161Z,1012.92
2023-05-06T22:38:26.048Z,1012.93
2023-05-06T22:39:26.044Z,1012.92
2023-05-06T22:40:26.046Z,1012.95
2023-05-06T22:41:25.925Z,1012.91
2023-05-06T22:42:25.927Z,1012.97
2023-05-06T22:43:25.928Z,1012.86
2023-05-06T22:44:25.806Z,1012.98
2023-05-06T22:45:25.810Z,1012.97
2023-05-06T22:46:26.005Z,1012.98
2023-05-06T22:47:25.750Z,1012.93
2023-05-06T22:48:25.705Z,1013.00
2023-05-06T22:49:25.571Z,1012.99
2023-05-06T22:50:25.580Z,1013.01
2023-05-06T22:51:25.573Z,1013.03
2023-05-06T22:52:25.458Z,1013.02
2023-05-06T22:53:25.459Z,1013.02
2023-05-06T22:54:25.461Z,1013.04
2023-05-06T22:55:25.339Z,1013.07
2023-05-06T22:56:25.339Z,1013.10
2023-05-06T22:57:25.381Z,1013.09
2023-05-06T22:58:25.235Z,1013.07
2023-05-06T22:59:25.226Z,1013.07
2023-05-06T23:00:25.109Z,1013.06
2023-05-06T23:01:25.194Z,1013.04
2023-05-06T23:02:25.222Z,1013.05
2023-05-06T23:03:25.051Z,1013.02
2023-05-06T23:04:24.997Z,1012.96
2023-05-06T23:05:24.872Z,1012.97
2023-05-06T23:06:24.868Z,1012.99
2023-05-06T23:07:24.867Z,1012.95
2023-05-06T23:08:24.755Z,1012.96
2023-05-06T23:09:24.756Z,1012.95
2023-05-06T23:10:24.760Z,1012.94
2023-05-06T23:11:24.636Z,1012.94
2023-05-06T23:12:24.726Z,1012.80
2023-05-06T23:13:24.683Z,1012.92
2023-05-06T23:14:24.520Z,1012.91
2023-05-06T23:15:24.529Z,1012.89
2023-05-06T23:16:24.429Z,1012.85
2023-05-06T23:17:24.425Z,1012.87
2023-05-06T23:18:24.422Z,1012.91
2023-05-06T23:19:24.279Z,1012.93
2023-05-06T23:20:24.301Z,1012.93
2023-05-06T23:21:24.167Z,1012.90
2023-05-06T23:22:24.167Z,1012.92
2023-05-06T23:23:24.175Z,1012.91
2023-05-06T23:24:24.055Z,1012.92
2023-05-06T23:25:24.067Z,1012.97
2023-05-06T23:26:24.060Z,1012.97
2023-05-06T23:27:23.933Z,1013.00
2023-05-06T23:28:23.938Z,1013.00
2023-05-06T23:29:23.935Z,1013.01
2023-05-06T23:30:23.814Z,1013.01
2023-05-06T23:31:23.877Z,1013.03
2023-05-06T23:32:23.701Z,1013.06
2023-05-06T23:33:23.696Z,1013.06
2023-05-06T23:34:23.793Z,1013.08
2023-05-06T23:35:23.586Z,1013.07
2023-05-06T23:36:23.585Z,1013.08
2023-05-06T23:37:23.586Z,1013.06
2023-05-06T23:38:23.464Z,1013.07
2023-05-06T23:39:23.469Z,1013.05
2023-05-06T23:40:23.349Z,1013.05
2023-05-06T23:41:23.349Z,1013.04
2023-05-06T23:42:25.504Z,1013.04
2023-05-06T23:43:23.236Z,1013.03
2023-05-06T23:44:23.253Z,1013.06
2023-05-06T23:45:23.244Z,1013.08
2023-05-06T23:46:23.178Z,1013.05
2023-05-06T23:47:23.135Z,1013.06
2023-05-06T23:48:23.002Z,1013.07
2023-05-06T23:49:23.001Z,1013.10
2023-05-06T23:50:23.017Z,1013.11
2023-05-06T23:51:22.877Z,1013.06
2023-05-06T23:52:22.890Z,1013.08
2023-05-06T23:53:22.888Z,1013.09
2023-05-06T23:54:22.762Z,1013.04
2023-05-06T23:55:22.766Z,1013.05
2023-05-06T23:56:22.648Z,1013.05
2023-05-06T23:57:22.647Z,1012.98
2023-05-06T23:58:22.662Z,1013.04
2023-05-06T23:59:22.527Z,1013.02
